sensor_id;sensor_type;location;lat;lon;timestamp;temperature;humidity
60234;DHT22;49514;43.538;-5.708;2023-03-30T00:00:59;14.70;99.90
60234;DHT22;49514;43.538;-5.708;2023-03-30T00:03:26;14.70;99.90
60234;DHT22;49514;43.538;-5.708;2023-03-30T00:05:54;14.70;99.90
60234;DHT22;49514;43.538;-5.708;2023-03-30T00:08:25;14.60;99.90
60234;DHT22;49514;43.538;-5.708;2023-03-30T00:11:09;14.60;99.90
60234;DHT22;49514;43.538;-5.708;2023-03-30T00:13:37;14.50;99.90
60234;DHT22;49514;43.538;-5.708;2023-03-30T00:16:06;14.50;99.90
60234;DHT22;49514;43.538;-5.708;2023-03-30T00:18:33;14.50;99.90
60234;DHT22;49514;43.538;-5.708;2023-03-30T00:21:01;14.40;99.90
60234;DHT22;49514;43.538;-5.708;2023-03-30T00:23:32;14.40;99.90
60234;DHT22;49514;43.538;-5.708;2023-03-30T00:25:59;14.30;99.90
60234;DHT22;49514;43.538;-5.708;2023-03-30T00:28:26;14.30;99.90
60234;DHT22;49514;43.538;-5.708;2023-03-30T00:30:57;14.30;99.90
60234;DHT22;49514;43.538;-5.708;2023-03-30T00:33:25;14.30;99.90
60234;DHT22;49514;43.538;-5.708;2023-03-30T00:35:52;14.30;99.90
60234;DHT22;49514;43.538;-5.708;2023-03-30T00:38:19;14.30;99.90
60234;DHT22;49514;43.538;-5.708;2023-03-30T00:40:56;14.20;99.90
60234;DHT22;49514;43.538;-5.708;2023-03-30T00:43:24;14.30;99.90
60234;DHT22;49514;43.538;-5.708;2023-03-30T00:45:51;14.30;99.90
60234;DHT22;49514;43.538;-5.708;2023-03-30T00:50:58;14.30;99.90
60234;DHT22;49514;43.538;-5.708;2023-03-30T00:53:32;14.20;99.90
60234;DHT22;49514;43.538;-5.708;2023-03-30T00:56:02;14.20;99.90
60234;DHT22;49514;43.538;-5.708;2023-03-30T00:58:30;14.10;99.90
60234;DHT22;49514;43.538;-5.708;2023-03-30T01:00:59;14.10;99.90
60234;DHT22;49514;43.538;-5.708;2023-03-30T01:03:36;14.00;99.90
60234;DHT22;49514;43.538;-5.708;2023-03-30T01:06:05;13.90;99.90
60234;DHT22;49514;43.538;-5.708;2023-03-30T01:08:33;13.90;99.90
60234;DHT22;49514;43.538;-5.708;2023-03-30T01:11:01;13.80;99.90
60234;DHT22;49514;43.538;-5.708;2023-03-30T01:13:29;13.80;99.90
60234;DHT22;49514;43.538;-5.708;2023-03-30T01:27:55;13.70;99.90
60234;DHT22;49514;43.538;-5.708;2023-03-30T01:30:41;13.60;99.90
60234;DHT22;49514;43.538;-5.708;2023-03-30T01:39:31;13.40;99.90
60234;DHT22;49514;43.538;-5.708;2023-03-30T01:50:12;13.30;99.90
60234;DHT22;49514;43.538;-5.708;2023-03-30T01:58:13;13.20;99.90
60234;DHT22;49514;43.538;-5.708;2023-03-30T02:00:44;13.10;99.90
60234;DHT22;49514;43.538;-5.708;2023-03-30T02:03:23;13.20;99.90
60234;DHT22;49514;43.538;-5.708;2023-03-30T02:05:58;13.20;99.90
60234;DHT22;49514;43.538;-5.708;2023-03-30T02:08:29;13.10;99.90
60234;DHT22;49514;43.538;-5.708;2023-03-30T02:10:57;13.00;99.90
60234;DHT22;49514;43.538;-5.708;2023-03-30T02:13:30;13.00;99.90
60234;DHT22;49514;43.538;-5.708;2023-03-30T02:16:05;13.00;99.90
60234;DHT22;49514;43.538;-5.708;2023-03-30T02:18:32;12.90;99.90
60234;DHT22;49514;43.538;-5.708;2023-03-30T02:20:59;12.90;99.90
60234;DHT22;49514;43.538;-5.708;2023-03-30T02:23:33;12.90;99.90
60234;DHT22;49514;43.538;-5.708;2023-03-30T02:26:01;12.80;99.90
60234;DHT22;49514;43.538;-5.708;2023-03-30T02:28:28;12.70;99.90
60234;DHT22;49514;43.538;-5.708;2023-03-30T02:30:54;12.70;99.90
60234;DHT22;49514;43.538;-5.708;2023-03-30T02:41:42;12.70;99.90
60234;DHT22;49514;43.538;-5.708;2023-03-30T02:44:42;12.60;99.90
60234;DHT22;49514;43.538;-5.708;2023-03-30T02:50:20;12.60;99.90
60234;DHT22;49514;43.538;-5.708;2023-03-30T02:52:58;12.50;99.90
60234;DHT22;49514;43.538;-5.708;2023-03-30T02:56:00;12.50;99.90
60234;DHT22;49514;43.538;-5.708;2023-03-30T02:58:55;12.50;99.90
60234;DHT22;49514;43.538;-5.708;2023-03-30T03:04:06;12.50;99.90
60234;DHT22;49514;43.538;-5.708;2023-03-30T03:06:45;12.50;99.90
60234;DHT22;49514;43.538;-5.708;2023-03-30T03:09:12;12.50;99.90
60234;DHT22;49514;43.538;-5.708;2023-03-30T03:11:40;12.50;99.90
60234;DHT22;49514;43.538;-5.708;2023-03-30T03:14:07;12.40;99.90
60234;DHT22;49514;43.538;-5.708;2023-03-30T03:16:34;12.40;99.90
60234;DHT22;49514;43.538;-5.708;2023-03-30T03:19:10;12.30;99.90
60234;DHT22;49514;43.538;-5.708;2023-03-30T03:21:39;12.40;99.90
60234;DHT22;49514;43.538;-5.708;2023-03-30T03:24:06;12.40;99.90
60234;DHT22;49514;43.538;-5.708;2023-03-30T03:26:51;12.40;99.90
60234;DHT22;49514;43.538;-5.708;2023-03-30T03:29:19;12.30;99.90
60234;DHT22;49514;43.538;-5.708;2023-03-30T03:31:46;12.30;99.90
60234;DHT22;49514;43.538;-5.708;2023-03-30T03:34:13;12.30;99.90
60234;DHT22;49514;43.538;-5.708;2023-03-30T03:37:10;12.30;99.90
60234;DHT22;49514;43.538;-5.708;2023-03-30T03:39:38;12.30;99.90
60234;DHT22;49514;43.538;-5.708;2023-03-30T03:42:09;12.20;99.90
60234;DHT22;49514;43.538;-5.708;2023-03-30T03:44:44;12.20;99.90
60234;DHT22;49514;43.538;-5.708;2023-03-30T03:47:11;12.20;99.90
60234;DHT22;49514;43.538;-5.708;2023-03-30T03:49:38;12.20;99.90
60234;DHT22;49514;43.538;-5.708;2023-03-30T03:52:05;12.20;99.90
60234;DHT22;49514;43.538;-5.708;2023-03-30T03:54:32;12.20;99.90
60234;DHT22;49514;43.538;-5.708;2023-03-30T03:56:59;12.20;99.90
60234;DHT22;49514;43.538;-5.708;2023-03-30T03:59:27;12.20;99.90
60234;DHT22;49514;43.538;-5.708;2023-03-30T04:01:54;12.20;99.90
60234;DHT22;49514;43.538;-5.708;2023-03-30T04:04:22;12.20;99.90
60234;DHT22;49514;43.538;-5.708;2023-03-30T04:06:48;12.20;99.90
60234;DHT22;49514;43.538;-5.708;2023-03-30T04:09:15;12.20;99.90
60234;DHT22;49514;43.538;-5.708;2023-03-30T04:12:05;12.20;99.90
60234;DHT22;49514;43.538;-5.708;2023-03-30T04:15:01;12.20;99.90
60234;DHT22;49514;43.538;-5.708;2023-03-30T04:18:06;12.20;99.90
60234;DHT22;49514;43.538;-5.708;2023-03-30T04:21:06;12.20;99.90
60234;DHT22;49514;43.538;-5.708;2023-03-30T04:23:56;12.20;99.90
60234;DHT22;49514;43.538;-5.708;2023-03-30T04:26:42;12.10;99.90
60234;DHT22;49514;43.538;-5.708;2023-03-30T04:29:52;12.20;99.90
60234;DHT22;49514;43.538;-5.708;2023-03-30T04:32:37;12.20;99.90
60234;DHT22;49514;43.538;-5.708;2023-03-30T04:35:16;12.20;99.90
60234;DHT22;49514;43.538;-5.708;2023-03-30T04:38:04;12.10;99.90
60234;DHT22;49514;43.538;-5.708;2023-03-30T04:40:51;12.10;99.90
60234;DHT22;49514;43.538;-5.708;2023-03-30T04:43:30;12.10;99.90
60234;DHT22;49514;43.538;-5.708;2023-03-30T04:46:27;12.10;99.90
60234;DHT22;49514;43.538;-5.708;2023-03-30T04:49:07;12.10;99.90
60234;DHT22;49514;43.538;-5.708;2023-03-30T04:51:37;12.00;99.90
60234;DHT22;49514;43.538;-5.708;2023-03-30T04:54:28;12.00;99.90
60234;DHT22;49514;43.538;-5.708;2023-03-30T04:56:55;11.90;99.90
60234;DHT22;49514;43.538;-5.708;2023-03-30T04:59:45;11.90;99.90
60234;DHT22;49514;43.538;-5.708;2023-03-30T05:02:12;11.90;99.90
60234;DHT22;49514;43.538;-5.708;2023-03-30T05:04:46;11.90;99.90
60234;DHT22;49514;43.538;-5.708;2023-03-30T05:07:15;11.90;99.90
60234;DHT22;49514;43.538;-5.708;2023-03-30T05:10:02;11.90;99.90
60234;DHT22;49514;43.538;-5.708;2023-03-30T05:13:07;11.80;99.90
60234;DHT22;49514;43.538;-5.708;2023-03-30T05:15:51;11.70;99.90
60234;DHT22;49514;43.538;-5.708;2023-03-30T05:18:36;11.80;99.90
60234;DHT22;49514;43.538;-5.708;2023-03-30T05:21:20;11.70;99.90
60234;DHT22;49514;43.538;-5.708;2023-03-30T05:24:16;11.60;99.90
60234;DHT22;49514;43.538;-5.708;2023-03-30T05:27:18;11.60;99.90
60234;DHT22;49514;43.538;-5.708;2023-03-30T05:29:51;11.60;99.90
60234;DHT22;49514;43.538;-5.708;2023-03-30T05:32:44;11.60;99.90
60234;DHT22;49514;43.538;-5.708;2023-03-30T05:35:28;11.50;99.90
60234;DHT22;49514;43.538;-5.708;2023-03-30T05:38:10;11.50;99.90
60234;DHT22;49514;43.538;-5.708;2023-03-30T05:41:05;11.40;99.90
60234;DHT22;49514;43.538;-5.708;2023-03-30T05:43:50;11.40;99.90
60234;DHT22;49514;43.538;-5.708;2023-03-30T05:46:56;11.40;99.90
60234;DHT22;49514;43.538;-5.708;2023-03-30T05:49:39;11.40;99.90
60234;DHT22;49514;43.538;-5.708;2023-03-30T05:52:32;11.40;99.90
60234;DHT22;49514;43.538;-5.708;2023-03-30T05:55:25;11.40;99.90
60234;DHT22;49514;43.538;-5.708;2023-03-30T05:58:05;11.40;99.90
60234;DHT22;49514;43.538;-5.708;2023-03-30T06:00:43;11.30;99.90
60234;DHT22;49514;43.538;-5.708;2023-03-30T06:03:20;11.30;99.90
60234;DHT22;49514;43.538;-5.708;2023-03-30T06:05:46;11.30;99.90
60234;DHT22;49514;43.538;-5.708;2023-03-30T06:08:16;11.30;99.90
60234;DHT22;49514;43.538;-5.708;2023-03-30T06:10:51;11.30;99.90
60234;DHT22;49514;43.538;-5.708;2023-03-30T06:13:18;11.30;99.90
60234;DHT22;49514;43.538;-5.708;2023-03-30T06:15:51;11.30;99.90
60234;DHT22;49514;43.538;-5.708;2023-03-30T06:18:24;11.30;99.90
60234;DHT22;49514;43.538;-5.708;2023-03-30T06:20:57;11.30;99.90
60234;DHT22;49514;43.538;-5.708;2023-03-30T06:23:24;11.30;99.90
60234;DHT22;49514;43.538;-5.708;2023-03-30T06:25:54;11.40;99.90
60234;DHT22;49514;43.538;-5.708;2023-03-30T06:28:26;11.40;99.90
60234;DHT22;49514;43.538;-5.708;2023-03-30T06:30:54;11.40;99.90
60234;DHT22;49514;43.538;-5.708;2023-03-30T06:33:23;11.50;99.90
60234;DHT22;49514;43.538;-5.708;2023-03-30T06:36:00;11.50;99.90
60234;DHT22;49514;43.538;-5.708;2023-03-30T06:38:27;11.60;99.90
60234;DHT22;49514;43.538;-5.708;2023-03-30T06:40:55;11.60;99.90
60234;DHT22;49514;43.538;-5.708;2023-03-30T06:43:25;11.60;99.90
60234;DHT22;49514;43.538;-5.708;2023-03-30T06:46:00;11.60;99.90
60234;DHT22;49514;43.538;-5.708;2023-03-30T06:48:26;11.60;99.90
60234;DHT22;49514;43.538;-5.708;2023-03-30T06:51:11;11.70;99.90
60234;DHT22;49514;43.538;-5.708;2023-03-30T06:53:40;11.70;99.90
60234;DHT22;49514;43.538;-5.708;2023-03-30T06:56:07;11.70;99.90
60234;DHT22;49514;43.538;-5.708;2023-03-30T06:58:39;11.80;99.90
60234;DHT22;49514;43.538;-5.708;2023-03-30T07:01:13;11.80;99.90
60234;DHT22;49514;43.538;-5.708;2023-03-30T07:04:01;11.90;99.90
60234;DHT22;49514;43.538;-5.708;2023-03-30T07:06:50;12.00;99.90
60234;DHT22;49514;43.538;-5.708;2023-03-30T07:09:17;12.10;99.90
60234;DHT22;49514;43.538;-5.708;2023-03-30T07:11:44;12.10;99.90
60234;DHT22;49514;43.538;-5.708;2023-03-30T07:14:11;12.20;99.90
60234;DHT22;49514;43.538;-5.708;2023-03-30T07:16:38;12.20;99.90
60234;DHT22;49514;43.538;-5.708;2023-03-30T07:19:05;12.30;99.90
60234;DHT22;49514;43.538;-5.708;2023-03-30T07:21:31;12.40;99.90
60234;DHT22;49514;43.538;-5.708;2023-03-30T07:23:58;12.50;99.90
60234;DHT22;49514;43.538;-5.708;2023-03-30T07:26:33;12.50;99.90
60234;DHT22;49514;43.538;-5.708;2023-03-30T07:29:05;12.60;99.90
60234;DHT22;49514;43.538;-5.708;2023-03-30T07:31:33;12.60;99.90
60234;DHT22;49514;43.538;-5.708;2023-03-30T07:34:01;12.60;99.90
60234;DHT22;49514;43.538;-5.708;2023-03-30T07:36:32;12.80;99.90
60234;DHT22;49514;43.538;-5.708;2023-03-30T07:38:59;12.90;99.90
60234;DHT22;49514;43.538;-5.708;2023-03-30T07:41:28;12.90;99.90
60234;DHT22;49514;43.538;-5.708;2023-03-30T07:43:57;12.90;99.90
60234;DHT22;49514;43.538;-5.708;2023-03-30T07:46:24;12.90;99.90
60234;DHT22;49514;43.538;-5.708;2023-03-30T07:48:53;12.90;99.90
60234;DHT22;49514;43.538;-5.708;2023-03-30T07:51:20;12.90;99.90
60234;DHT22;49514;43.538;-5.708;2023-03-30T07:53:57;12.90;99.90
60234;DHT22;49514;43.538;-5.708;2023-03-30T07:56:33;13.00;99.90
60234;DHT22;49514;43.538;-5.708;2023-03-30T07:59:04;13.00;99.90
60234;DHT22;49514;43.538;-5.708;2023-03-30T08:01:34;13.10;99.90
60234;DHT22;49514;43.538;-5.708;2023-03-30T08:04:17;13.10;99.90
60234;DHT22;49514;43.538;-5.708;2023-03-30T08:06:43;13.10;99.90
60234;DHT22;49514;43.538;-5.708;2023-03-30T08:09:10;13.20;99.90
60234;DHT22;49514;43.538;-5.708;2023-03-30T08:11:38;13.20;99.90
60234;DHT22;49514;43.538;-5.708;2023-03-30T08:14:05;13.30;99.90
60234;DHT22;49514;43.538;-5.708;2023-03-30T08:16:31;13.40;99.90
60234;DHT22;49514;43.538;-5.708;2023-03-30T08:18:57;13.40;99.90
60234;DHT22;49514;43.538;-5.708;2023-03-30T08:21:25;13.50;99.90
60234;DHT22;49514;43.538;-5.708;2023-03-30T08:23:52;13.50;99.90
60234;DHT22;49514;43.538;-5.708;2023-03-30T08:26:20;13.60;99.90
60234;DHT22;49514;43.538;-5.708;2023-03-30T08:28:46;13.60;99.90
60234;DHT22;49514;43.538;-5.708;2023-03-30T08:31:13;13.70;99.90
60234;DHT22;49514;43.538;-5.708;2023-03-30T08:33:40;13.80;99.90
60234;DHT22;49514;43.538;-5.708;2023-03-30T08:36:06;13.80;99.90
60234;DHT22;49514;43.538;-5.708;2023-03-30T08:38:33;13.90;99.90
60234;DHT22;49514;43.538;-5.708;2023-03-30T08:40:59;14.00;99.90
60234;DHT22;49514;43.538;-5.708;2023-03-30T08:45:52;14.10;99.90
60234;DHT22;49514;43.538;-5.708;2023-03-30T08:50:47;14.30;99.90
60234;DHT22;49514;43.538;-5.708;2023-03-30T08:53:15;14.40;99.90
60234;DHT22;49514;43.538;-5.708;2023-03-30T08:55:42;14.40;99.90
60234;DHT22;49514;43.538;-5.708;2023-03-30T09:01:24;14.50;99.90
60234;DHT22;49514;43.538;-5.708;2023-03-30T09:08:59;14.70;99.90
60234;DHT22;49514;43.538;-5.708;2023-03-30T09:11:31;14.70;99.90
60234;DHT22;49514;43.538;-5.708;2023-03-30T09:13:58;14.80;99.90
60234;DHT22;49514;43.538;-5.708;2023-03-30T09:19:00;14.80;99.90
60234;DHT22;49514;43.538;-5.708;2023-03-30T09:21:29;14.90;99.90
60234;DHT22;49514;43.538;-5.708;2023-03-30T09:23:57;15.00;99.90
60234;DHT22;49514;43.538;-5.708;2023-03-30T09:31:40;15.10;99.90
60234;DHT22;49514;43.538;-5.708;2023-03-30T09:39:09;15.30;99.90
60234;DHT22;49514;43.538;-5.708;2023-03-30T09:44:08;15.50;99.90
60234;DHT22;49514;43.538;-5.708;2023-03-30T09:46:37;15.60;99.90
60234;DHT22;49514;43.538;-5.708;2023-03-30T09:49:13;15.60;99.90
60234;DHT22;49514;43.538;-5.708;2023-03-30T09:54:32;15.70;99.90
60234;DHT22;49514;43.538;-5.708;2023-03-30T09:56:59;15.70;99.90
60234;DHT22;49514;43.538;-5.708;2023-03-30T09:59:29;15.70;99.90
60234;DHT22;49514;43.538;-5.708;2023-03-30T10:04:59;15.80;99.90
60234;DHT22;49514;43.538;-5.708;2023-03-30T10:09:54;15.90;99.90
60234;DHT22;49514;43.538;-5.708;2023-03-30T10:12:22;15.90;99.90
60234;DHT22;49514;43.538;-5.708;2023-03-30T10:14:55;15.90;99.90
60234;DHT22;49514;43.538;-5.708;2023-03-30T10:17:23;15.90;99.90
60234;DHT22;49514;43.538;-5.708;2023-03-30T10:19:53;16.00;99.90
60234;DHT22;49514;43.538;-5.708;2023-03-30T10:22:36;16.10;99.90
60234;DHT22;49514;43.538;-5.708;2023-03-30T10:25:17;16.10;99.90
60234;DHT22;49514;43.538;-5.708;2023-03-30T10:27:43;16.10;99.90
60234;DHT22;49514;43.538;-5.708;2023-03-30T10:30:16;16.20;99.90
60234;DHT22;49514;43.538;-5.708;2023-03-30T10:32:44;16.20;99.90
60234;DHT22;49514;43.538;-5.708;2023-03-30T10:35:18;16.30;99.90
60234;DHT22;49514;43.538;-5.708;2023-03-30T10:37:48;16.30;99.90
60234;DHT22;49514;43.538;-5.708;2023-03-30T10:40:23;16.40;99.90
60234;DHT22;49514;43.538;-5.708;2023-03-30T10:42:56;16.40;99.90
60234;DHT22;49514;43.538;-5.708;2023-03-30T10:45:48;16.50;99.90
60234;DHT22;49514;43.538;-5.708;2023-03-30T10:48:25;16.50;99.90
60234;DHT22;49514;43.538;-5.708;2023-03-30T10:51:20;16.60;99.90
60234;DHT22;49514;43.538;-5.708;2023-03-30T10:54:17;16.60;99.90
60234;DHT22;49514;43.538;-5.708;2023-03-30T10:56:56;16.70;99.90
60234;DHT22;49514;43.538;-5.708;2023-03-30T11:10:20;16.90;99.90
60234;DHT22;49514;43.538;-5.708;2023-03-30T11:13:12;17.00;99.90
60234;DHT22;49514;43.538;-5.708;2023-03-30T11:18:34;17.20;99.90
60234;DHT22;49514;43.538;-5.708;2023-03-30T11:24:11;17.30;99.90
60234;DHT22;49514;43.538;-5.708;2023-03-30T11:26:48;17.30;99.90
60234;DHT22;49514;43.538;-5.708;2023-03-30T11:32:35;17.60;99.90
60234;DHT22;49514;43.538;-5.708;2023-03-30T11:35:11;17.70;99.90
60234;DHT22;49514;43.538;-5.708;2023-03-30T11:38:03;17.80;99.90
60234;DHT22;49514;43.538;-5.708;2023-03-30T11:43:00;18.40;99.90
60234;DHT22;49514;43.538;-5.708;2023-03-30T11:45:46;18.90;99.90
60234;DHT22;49514;43.538;-5.708;2023-03-30T11:53:32;20.10;99.90
60234;DHT22;49514;43.538;-5.708;2023-03-30T12:06:48;21.20;99.90
60234;DHT22;49514;43.538;-5.708;2023-03-30T12:15:03;21.90;99.90
60234;DHT22;49514;43.538;-5.708;2023-03-30T12:20:33;22.30;99.90
60234;DHT22;49514;43.538;-5.708;2023-03-30T12:26:00;22.70;99.90
60234;DHT22;49514;43.538;-5.708;2023-03-30T12:28:41;23.00;99.90
60234;DHT22;49514;43.538;-5.708;2023-03-30T12:31:08;23.30;99.90
60234;DHT22;49514;43.538;-5.708;2023-03-30T12:33:44;23.50;99.90
60234;DHT22;49514;43.538;-5.708;2023-03-30T12:36:46;23.90;99.90
60234;DHT22;49514;43.538;-5.708;2023-03-30T12:39:35;23.80;99.90
60234;DHT22;49514;43.538;-5.708;2023-03-30T12:50:10;24.30;99.90
60234;DHT22;49514;43.538;-5.708;2023-03-30T12:52:58;24.40;99.90
60234;DHT22;49514;43.538;-5.708;2023-03-30T12:55:41;24.60;99.90
60234;DHT22;49514;43.538;-5.708;2023-03-30T13:03:19;24.20;99.90
60234;DHT22;49514;43.538;-5.708;2023-03-30T13:05:50;24.40;99.90
60234;DHT22;49514;43.538;-5.708;2023-03-30T13:08:29;25.40;99.90
60234;DHT22;49514;43.538;-5.708;2023-03-30T13:16:14;27.20;96.90
60234;DHT22;49514;43.538;-5.708;2023-03-30T13:19:08;27.90;95.50
60234;DHT22;49514;43.538;-5.708;2023-03-30T13:21:48;28.30;94.00
60234;DHT22;49514;43.538;-5.708;2023-03-30T13:24:20;29.70;92.60
60234;DHT22;49514;43.538;-5.708;2023-03-30T13:26:49;31.00;91.70
60234;DHT22;49514;43.538;-5.708;2023-03-30T13:29:16;31.90;86.90
60234;DHT22;49514;43.538;-5.708;2023-03-30T13:36:44;32.20;83.20
60234;DHT22;49514;43.538;-5.708;2023-03-30T13:39:47;32.10;82.60
60234;DHT22;49514;43.538;-5.708;2023-03-30T13:50:11;33.40;76.00
60234;DHT22;49514;43.538;-5.708;2023-03-30T13:52:44;34.70;76.20
60234;DHT22;49514;43.538;-5.708;2023-03-30T13:55:20;37.00;72.20
60234;DHT22;49514;43.538;-5.708;2023-03-30T13:57:48;37.70;70.00
60234;DHT22;49514;43.538;-5.708;2023-03-30T14:00:28;38.10;69.90
60234;DHT22;49514;43.538;-5.708;2023-03-30T14:05:45;40.10;65.00
60234;DHT22;49514;43.538;-5.708;2023-03-30T14:08:12;40.30;61.20
60234;DHT22;49514;43.538;-5.708;2023-03-30T14:10:38;41.10;60.00
60234;DHT22;49514;43.538;-5.708;2023-03-30T14:13:07;41.00;57.50
60234;DHT22;49514;43.538;-5.708;2023-03-30T14:15:37;41.60;59.20
60234;DHT22;49514;43.538;-5.708;2023-03-30T14:18:04;42.00;56.80
60234;DHT22;49514;43.538;-5.708;2023-03-30T14:20:47;42.90;58.50
60234;DHT22;49514;43.538;-5.708;2023-03-30T14:23:34;43.20;55.30
60234;DHT22;49514;43.538;-5.708;2023-03-30T14:26:05;43.60;53.40
60234;DHT22;49514;43.538;-5.708;2023-03-30T14:28:38;43.40;52.60
60234;DHT22;49514;43.538;-5.708;2023-03-30T14:31:15;42.90;54.20
60234;DHT22;49514;43.538;-5.708;2023-03-30T14:33:43;43.30;54.00
60234;DHT22;49514;43.538;-5.708;2023-03-30T14:36:10;44.20;52.60
60234;DHT22;49514;43.538;-5.708;2023-03-30T14:38:39;43.60;51.50
60234;DHT22;49514;43.538;-5.708;2023-03-30T14:41:12;44.00;51.50
60234;DHT22;49514;43.538;-5.708;2023-03-30T14:43:40;44.00;50.70
60234;DHT22;49514;43.538;-5.708;2023-03-30T14:46:08;43.20;50.60
60234;DHT22;49514;43.538;-5.708;2023-03-30T14:48:37;42.00;50.80
60234;DHT22;49514;43.538;-5.708;2023-03-30T14:51:06;42.50;53.50
60234;DHT22;49514;43.538;-5.708;2023-03-30T14:53:35;41.80;52.80
60234;DHT22;49514;43.538;-5.708;2023-03-30T14:56:02;42.40;52.70
60234;DHT22;49514;43.538;-5.708;2023-03-30T14:58:29;42.00;50.70
60234;DHT22;49514;43.538;-5.708;2023-03-30T15:00:57;41.90;52.30
60234;DHT22;49514;43.538;-5.708;2023-03-30T15:03:25;41.40;51.70
60234;DHT22;49514;43.538;-5.708;2023-03-30T15:05:53;40.70;52.30
60234;DHT22;49514;43.538;-5.708;2023-03-30T15:08:26;40.50;53.10
60234;DHT22;49514;43.538;-5.708;2023-03-30T15:10:54;40.60;52.90
60234;DHT22;49514;43.538;-5.708;2023-03-30T15:13:25;39.80;52.30
60234;DHT22;49514;43.538;-5.708;2023-03-30T15:15:55;39.90;53.10
60234;DHT22;49514;43.538;-5.708;2023-03-30T15:18:25;39.60;52.90
60234;DHT22;49514;43.538;-5.708;2023-03-30T15:20:54;39.70;53.00
60234;DHT22;49514;43.538;-5.708;2023-03-30T15:23:22;39.40;53.00
60234;DHT22;49514;43.538;-5.708;2023-03-30T15:25:49;39.30;53.30
60234;DHT22;49514;43.538;-5.708;2023-03-30T15:28:18;38.30;53.20
60234;DHT22;49514;43.538;-5.708;2023-03-30T15:30:47;37.90;54.00
60234;DHT22;49514;43.538;-5.708;2023-03-30T15:33:24;37.10;54.60
60234;DHT22;49514;43.538;-5.708;2023-03-30T15:35:54;36.50;55.20
60234;DHT22;49514;43.538;-5.708;2023-03-30T15:38:31;36.30;55.70
60234;DHT22;49514;43.538;-5.708;2023-03-30T15:40:59;35.60;56.00
60234;DHT22;49514;43.538;-5.708;2023-03-30T15:43:26;35.70;56.30
60234;DHT22;49514;43.538;-5.708;2023-03-30T15:48:42;34.30;57.20
60234;DHT22;49514;43.538;-5.708;2023-03-30T15:51:09;33.40;58.70
60234;DHT22;49514;43.538;-5.708;2023-03-30T15:56:31;33.30;60.50
60234;DHT22;49514;43.538;-5.708;2023-03-30T15:58:58;32.70;60.20
60234;DHT22;49514;43.538;-5.708;2023-03-30T16:01:27;32.80;60.50
60234;DHT22;49514;43.538;-5.708;2023-03-30T16:03:55;32.80;61.00
60234;DHT22;49514;43.538;-5.708;2023-03-30T16:06:21;33.20;60.70
60234;DHT22;49514;43.538;-5.708;2023-03-30T16:08:48;33.20;60.80
60234;DHT22;49514;43.538;-5.708;2023-03-30T16:11:15;32.70;60.90
60234;DHT22;49514;43.538;-5.708;2023-03-30T16:13:44;32.30;61.40
60234;DHT22;49514;43.538;-5.708;2023-03-30T16:16:14;31.90;61.60
60234;DHT22;49514;43.538;-5.708;2023-03-30T16:18:43;31.60;62.20
60234;DHT22;49514;43.538;-5.708;2023-03-30T16:21:10;30.80;63.30
60234;DHT22;49514;43.538;-5.708;2023-03-30T16:23:37;30.70;62.80
60234;DHT22;49514;43.538;-5.708;2023-03-30T16:26:04;30.40;64.30
60234;DHT22;49514;43.538;-5.708;2023-03-30T16:28:33;30.10;64.40
60234;DHT22;49514;43.538;-5.708;2023-03-30T16:31:05;30.10;64.50
60234;DHT22;49514;43.538;-5.708;2023-03-30T16:33:32;29.70;65.40
60234;DHT22;49514;43.538;-5.708;2023-03-30T16:35:59;29.20;66.20
60234;DHT22;49514;43.538;-5.708;2023-03-30T16:38:25;28.90;66.80
60234;DHT22;49514;43.538;-5.708;2023-03-30T16:40:57;28.50;68.10
60234;DHT22;49514;43.538;-5.708;2023-03-30T16:43:25;28.30;68.60
60234;DHT22;49514;43.538;-5.708;2023-03-30T16:45:52;28.00;68.40
60234;DHT22;49514;43.538;-5.708;2023-03-30T16:48:19;27.80;69.30
60234;DHT22;49514;43.538;-5.708;2023-03-30T16:50:50;27.60;69.70
60234;DHT22;49514;43.538;-5.708;2023-03-30T16:53:17;27.50;69.60
60234;DHT22;49514;43.538;-5.708;2023-03-30T16:55:44;27.30;70.60
60234;DHT22;49514;43.538;-5.708;2023-03-30T16:58:11;27.10;70.10
60234;DHT22;49514;43.538;-5.708;2023-03-30T17:00:45;26.90;72.10
60234;DHT22;49514;43.538;-5.708;2023-03-30T17:03:12;26.60;72.90
60234;DHT22;49514;43.538;-5.708;2023-03-30T17:05:39;26.50;73.50
60234;DHT22;49514;43.538;-5.708;2023-03-30T17:08:22;26.30;74.00
60234;DHT22;49514;43.538;-5.708;2023-03-30T17:10:51;26.00;75.70
60234;DHT22;49514;43.538;-5.708;2023-03-30T17:13:18;25.90;74.90
60234;DHT22;49514;43.538;-5.708;2023-03-30T17:15:45;25.70;75.20
60234;DHT22;49514;43.538;-5.708;2023-03-30T17:18:20;25.60;75.80
60234;DHT22;49514;43.538;-5.708;2023-03-30T17:20:51;25.50;76.00
60234;DHT22;49514;43.538;-5.708;2023-03-30T17:23:19;25.30;78.20
60234;DHT22;49514;43.538;-5.708;2023-03-30T17:25:47;25.20;77.30
60234;DHT22;49514;43.538;-5.708;2023-03-30T17:30:45;24.90;79.70
60234;DHT22;49514;43.538;-5.708;2023-03-30T17:33:13;24.70;79.20
60234;DHT22;49514;43.538;-5.708;2023-03-30T17:35:39;24.70;84.20
60234;DHT22;49514;43.538;-5.708;2023-03-30T17:38:09;24.60;80.80
60234;DHT22;49514;43.538;-5.708;2023-03-30T17:40:37;24.40;81.30
60234;DHT22;49514;43.538;-5.708;2023-03-30T17:43:05;24.20;81.40
60234;DHT22;49514;43.538;-5.708;2023-03-30T17:45:33;24.10;82.90
60234;DHT22;49514;43.538;-5.708;2023-03-30T17:48:00;23.90;85.00
60234;DHT22;49514;43.538;-5.708;2023-03-30T17:50:37;23.80;84.40
60234;DHT22;49514;43.538;-5.708;2023-03-30T17:53:05;23.70;83.80
60234;DHT22;49514;43.538;-5.708;2023-03-30T17:55:33;23.60;88.30
60234;DHT22;49514;43.538;-5.708;2023-03-30T17:57:59;23.40;87.80
60234;DHT22;49514;43.538;-5.708;2023-03-30T18:00:32;23.30;86.50
60234;DHT22;49514;43.538;-5.708;2023-03-30T18:02:59;23.20;86.30
60234;DHT22;49514;43.538;-5.708;2023-03-30T18:05:28;23.10;87.80
60234;DHT22;49514;43.538;-5.708;2023-03-30T18:07:56;23.00;87.40
60234;DHT22;49514;43.538;-5.708;2023-03-30T18:10:37;22.90;90.30
60234;DHT22;49514;43.538;-5.708;2023-03-30T18:13:04;22.80;88.10
60234;DHT22;49514;43.538;-5.708;2023-03-30T18:15:33;22.80;89.60
60234;DHT22;49514;43.538;-5.708;2023-03-30T18:18:00;22.80;88.90
60234;DHT22;49514;43.538;-5.708;2023-03-30T18:20:41;22.80;88.80
60234;DHT22;49514;43.538;-5.708;2023-03-30T18:23:09;22.70;89.10
60234;DHT22;49514;43.538;-5.708;2023-03-30T18:25:36;22.60;90.80
60234;DHT22;49514;43.538;-5.708;2023-03-30T18:28:05;22.60;92.20
60234;DHT22;49514;43.538;-5.708;2023-03-30T18:30:38;22.40;90.20
60234;DHT22;49514;43.538;-5.708;2023-03-30T18:33:05;22.40;91.00
60234;DHT22;49514;43.538;-5.708;2023-03-30T18:35:34;22.20;93.20
60234;DHT22;49514;43.538;-5.708;2023-03-30T18:38:02;22.10;92.60
60234;DHT22;49514;43.538;-5.708;2023-03-30T18:40:35;21.90;93.30
60234;DHT22;49514;43.538;-5.708;2023-03-30T18:43:03;21.80;93.60
60234;DHT22;49514;43.538;-5.708;2023-03-30T18:45:35;21.60;93.10
60234;DHT22;49514;43.538;-5.708;2023-03-30T18:48:04;21.50;94.80